sensor_id;sensor_type;location;lat;lon;timestamp;pressure;altitude;pressure_sealevel;temperature;humidity
6134;BME280;3098;42.678;23.364;2023-10-19T00:02:13;95123.84;;;6.23;100.00
6134;BME280;3098;42.678;23.364;2023-10-19T00:04:43;95126.16;;;6.30;100.00
6134;BME280;3098;42.678;23.364;2023-10-19T00:07:09;95040.88;;;5.82;100.00
6134;BME280;3098;42.678;23.364;2023-10-19T00:09:41;95112.94;;;6.35;100.00
6134;BME280;3098;42.678;23.364;2023-10-19T00:12:12;95090.19;;;6.15;100.00
6134;BME280;3098;42.678;23.364;2023-10-19T00:14:41;95105.66;;;6.22;100.00
6134;BME280;3098;42.678;23.364;2023-10-19T00:17:07;95114.09;;;6.24;100.00
6134;BME280;3098;42.678;23.364;2023-10-19T00:19:36;95074.38;;;6.15;100.00
6134;BME280;3098;42.678;23.364;2023-10-19T00:22:07;95057.59;;;6.06;100.00
6134;BME280;3098;42.678;23.364;2023-10-19T00:24:46;95067.50;;;6.19;100.00
6134;BME280;3098;42.678;23.364;2023-10-19T00:27:13;95100.38;;;6.27;100.00
6134;BME280;3098;42.678;23.364;2023-10-19T00:29:42;94988.97;;;5.54;100.00
6134;BME280;3098;42.678;23.364;2023-10-19T00:32:15;95090.88;;;6.26;100.00
6134;BME280;3098;42.678;23.364;2023-10-19T00:34:44;95093.78;;;6.29;100.00
6134;BME280;3098;42.678;23.364;2023-10-19T00:37:20;95024.31;;;5.87;100.00
6134;BME280;3098;42.678;23.364;2023-10-19T00:39:52;95085.88;;;6.29;100.00
6134;BME280;3098;42.678;23.364;2023-10-19T00:42:21;95092.66;;;6.35;100.00
6134;BME280;3098;42.678;23.364;2023-10-19T00:44:51;95046.78;;;6.08;100.00
6134;BME280;3098;42.678;23.364;2023-10-19T00:47:26;95055.91;;;6.20;100.00
6134;BME280;3098;42.678;23.364;2023-10-19T00:50:01;95074.50;;;6.34;100.00
6134;BME280;3098;42.678;23.364;2023-10-19T00:52:32;95074.59;;;6.24;100.00
6134;BME280;3098;42.678;23.364;2023-10-19T00:55:09;94990.75;;;5.63;100.00
6134;BME280;3098;42.678;23.364;2023-10-19T00:57:40;95077.44;;;6.27;100.00
6134;BME280;3098;42.678;23.364;2023-10-19T01:00:12;95079.56;;;6.25;100.00
6134;BME280;3098;42.678;23.364;2023-10-19T01:02:48;95006.22;;;5.75;100.00
6134;BME280;3098;42.678;23.364;2023-10-19T01:05:17;95075.94;;;6.16;100.00
6134;BME280;3098;42.678;23.364;2023-10-19T01:07:48;95040.84;;;5.92;100.00
6134;BME280;3098;42.678;23.364;2023-10-19T01:10:22;95081.25;;;6.11;100.00
6134;BME280;3098;42.678;23.364;2023-10-19T01:12:54;95003.13;;;5.63;100.00
6134;BME280;3098;42.678;23.364;2023-10-19T01:15:25;95096.22;;;6.16;100.00
6134;BME280;3098;42.678;23.364;2023-10-19T01:18:01;95081.25;;;6.11;100.00
6134;BME280;3098;42.678;23.364;2023-10-19T01:20:31;95067.09;;;6.02;100.00
6134;BME280;3098;42.678;23.364;2023-10-19T01:23:15;95029.66;;;5.71;100.00
6134;BME280;3098;42.678;23.364;2023-10-19T01:25:52;95010.22;;;5.62;100.00
6134;BME280;3098;42.678;23.364;2023-10-19T01:28:27;95078.16;;;6.04;100.00
6134;BME280;3098;42.678;23.364;2023-10-19T01:31:08;95050.09;;;5.90;100.00
6134;BME280;3098;42.678;23.364;2023-10-19T01:33:40;95076.53;;;6.08;100.00
6134;BME280;3098;42.678;23.364;2023-10-19T01:36:09;95074.97;;;6.07;100.00
6134;BME280;3098;42.678;23.364;2023-10-19T01:38:52;95082.09;;;6.02;100.00
6134;BME280;3098;42.678;23.364;2023-10-19T01:41:20;95066.38;;;5.92;100.00
6134;BME280;3098;42.678;23.364;2023-10-19T01:43:49;95087.63;;;6.05;100.00
6134;BME280;3098;42.678;23.364;2023-10-19T01:46:17;95058.78;;;5.90;100.00
6134;BME280;3098;42.678;23.364;2023-10-19T01:48:50;95085.47;;;6.12;100.00
6134;BME280;3098;42.678;23.364;2023-10-19T01:51:20;95020.16;;;5.75;100.00
6134;BME280;3098;42.678;23.364;2023-10-19T01:53:51;95080.25;;;6.07;100.00
6134;BME280;3098;42.678;23.364;2023-10-19T01:56:17;95020.22;;;5.65;100.00
6134;BME280;3098;42.678;23.364;2023-10-19T01:58:48;95008.88;;;5.70;100.00
6134;BME280;3098;42.678;23.364;2023-10-19T02:01:15;95086.03;;;6.09;100.00
6134;BME280;3098;42.678;23.364;2023-10-19T02:03:47;95046.16;;;5.87;100.00
6134;BME280;3098;42.678;23.364;2023-10-19T02:06:18;95070.75;;;6.06;100.00
6134;BME280;3098;42.678;23.364;2023-10-19T02:08:48;95072.81;;;6.14;100.00
6134;BME280;3098;42.678;23.364;2023-10-19T02:11:19;95063.66;;;6.07;100.00
6134;BME280;3098;42.678;23.364;2023-10-19T02:13:48;95081.75;;;6.18;100.00
6134;BME280;3098;42.678;23.364;2023-10-19T02:16:16;95084.38;;;6.13;100.00
6134;BME280;3098;42.678;23.364;2023-10-19T02:18:46;95019.13;;;5.71;100.00
6134;BME280;3098;42.678;23.364;2023-10-19T02:21:13;95064.22;;;6.04;100.00
6134;BME280;3098;42.678;23.364;2023-10-19T02:23:41;95059.53;;;5.96;100.00
6134;BME280;3098;42.678;23.364;2023-10-19T02:26:08;95092.47;;;6.27;100.00
6134;BME280;3098;42.678;23.364;2023-10-19T02:28:40;95018.13;;;5.67;100.00
6134;BME280;3098;42.678;23.364;2023-10-19T02:31:09;95076.63;;;5.98;100.00
6134;BME280;3098;42.678;23.364;2023-10-19T02:33:44;94981.78;;;5.31;100.00
6134;BME280;3098;42.678;23.364;2023-10-19T02:36:18;95081.13;;;5.93;100.00
6134;BME280;3098;42.678;23.364;2023-10-19T02:38:46;95054.41;;;5.65;100.00
6134;BME280;3098;42.678;23.364;2023-10-19T02:41:14;94916.38;;;4.70;100.00
6134;BME280;3098;42.678;23.364;2023-10-19T02:43:44;95069.41;;;5.70;100.00
6134;BME280;3098;42.678;23.364;2023-10-19T02:46:13;95107.75;;;5.86;100.00
6134;BME280;3098;42.678;23.364;2023-10-19T02:48:39;94879.69;;;4.55;100.00
6134;BME280;3098;42.678;23.364;2023-10-19T02:51:10;95019.38;;;5.31;100.00
6134;BME280;3098;42.678;23.364;2023-10-19T02:53:37;95092.22;;;5.85;100.00
6134;BME280;3098;42.678;23.364;2023-10-19T02:56:12;95051.63;;;5.52;100.00
6134;BME280;3098;42.678;23.364;2023-10-19T02:58:44;94993.75;;;5.08;100.00
6134;BME280;3098;42.678;23.364;2023-10-19T03:01:16;94941.81;;;4.80;100.00
6134;BME280;3098;42.678;23.364;2023-10-19T03:03:50;95076.19;;;5.81;100.00
6134;BME280;3098;42.678;23.364;2023-10-19T03:06:18;95045.00;;;5.54;100.00
6134;BME280;3098;42.678;23.364;2023-10-19T03:08:47;95081.69;;;5.85;100.00
6134;BME280;3098;42.678;23.364;2023-10-19T03:11:13;95042.66;;;5.53;100.00
6134;BME280;3098;42.678;23.364;2023-10-19T03:13:41;95081.44;;;5.81;100.00
6134;BME280;3098;42.678;23.364;2023-10-19T03:16:10;95080.47;;;5.67;100.00
6134;BME280;3098;42.678;23.364;2023-10-19T03:18:38;95081.28;;;5.62;100.00
6134;BME280;3098;42.678;23.364;2023-10-19T03:21:05;95025.72;;;5.20;100.00
6134;BME280;3098;42.678;23.364;2023-10-19T03:23:33;95077.91;;;5.52;100.00
6134;BME280;3098;42.678;23.364;2023-10-19T03:26:00;95081.38;;;5.47;100.00
6134;BME280;3098;42.678;23.364;2023-10-19T03:28:53;95058.84;;;5.26;100.00
6134;BME280;3098;42.678;23.364;2023-10-19T03:31:23;95025.56;;;5.01;100.00
6134;BME280;3098;42.678;23.364;2023-10-19T03:33:51;95091.09;;;5.47;100.00
6134;BME280;3098;42.678;23.364;2023-10-19T03:36:22;95053.88;;;5.25;100.00
6134;BME280;3098;42.678;23.364;2023-10-19T03:38:50;95081.41;;;5.37;100.00
6134;BME280;3098;42.678;23.364;2023-10-19T03:41:19;95072.66;;;5.52;100.00
6134;BME280;3098;42.678;23.364;2023-10-19T03:43:51;95022.09;;;5.16;100.00
6134;BME280;3098;42.678;23.364;2023-10-19T03:46:21;95006.84;;;5.13;100.00
6134;BME280;3098;42.678;23.364;2023-10-19T03:48:55;95048.50;;;5.40;100.00
6134;BME280;3098;42.678;23.364;2023-10-19T03:51:25;95056.63;;;5.53;100.00
6134;BME280;3098;42.678;23.364;2023-10-19T03:54:04;95018.59;;;5.26;100.00
6134;BME280;3098;42.678;23.364;2023-10-19T03:56:35;95064.44;;;5.63;100.00
6134;BME280;3098;42.678;23.364;2023-10-19T03:59:03;95049.28;;;5.45;100.00
6134;BME280;3098;42.678;23.364;2023-10-19T04:01:32;94787.88;;;3.71;100.00
6134;BME280;3098;42.678;23.364;2023-10-19T04:04:00;95058.75;;;5.46;100.00
6134;BME280;3098;42.678;23.364;2023-10-19T04:06:28;95016.50;;;5.22;100.00
6134;BME280;3098;42.678;23.364;2023-10-19T04:08:55;95063.72;;;5.48;100.00
6134;BME280;3098;42.678;23.364;2023-10-19T04:11:22;95039.34;;;5.32;100.00
6134;BME280;3098;42.678;23.364;2023-10-19T04:13:58;95060.03;;;5.49;100.00
6134;BME280;3098;42.678;23.364;2023-10-19T04:16:29;95069.41;;;5.65;100.00
6134;BME280;3098;42.678;23.364;2023-10-19T04:19:04;95011.00;;;5.24;100.00
6134;BME280;3098;42.678;23.364;2023-10-19T04:21:32;95029.09;;;5.36;100.00
6134;BME280;3098;42.678;23.364;2023-10-19T04:24:04;95013.13;;;5.22;100.00
6134;BME280;3098;42.678;23.364;2023-10-19T04:26:33;95018.31;;;5.32;100.00
6134;BME280;3098;42.678;23.364;2023-10-19T04:29:03;95066.28;;;5.63;100.00
6134;BME280;3098;42.678;23.364;2023-10-19T04:31:35;95065.72;;;5.66;100.00
6134;BME280;3098;42.678;23.364;2023-10-19T04:34:08;95078.38;;;5.64;100.00
6134;BME280;3098;42.678;23.364;2023-10-19T04:36:36;94894.69;;;4.44;100.00
6134;BME280;3098;42.678;23.364;2023-10-19T04:39:07;94985.34;;;5.01;100.00
6134;BME280;3098;42.678;23.364;2023-10-19T04:41:39;95062.06;;;5.67;100.00
6134;BME280;3098;42.678;23.364;2023-10-19T04:44:07;94975.34;;;5.08;100.00
6134;BME280;3098;42.678;23.364;2023-10-19T04:46:35;95056.06;;;5.51;100.00
6134;BME280;3098;42.678;23.364;2023-10-19T04:49:04;95056.41;;;5.40;100.00
6134;BME280;3098;42.678;23.364;2023-10-19T04:51:33;95044.88;;;5.36;100.00
6134;BME280;3098;42.678;23.364;2023-10-19T04:54:04;95040.91;;;5.38;100.00
6134;BME280;3098;42.678;23.364;2023-10-19T04:56:34;95015.00;;;5.11;100.00
6134;BME280;3098;42.678;23.364;2023-10-19T04:59:03;95044.66;;;5.27;100.00
6134;BME280;3098;42.678;23.364;2023-10-19T05:01:31;95027.59;;;5.14;100.00
6134;BME280;3098;42.678;23.364;2023-10-19T05:04:01;95050.38;;;5.34;100.00
6134;BME280;3098;42.678;23.364;2023-10-19T05:06:29;95051.34;;;5.53;100.00
6134;BME280;3098;42.678;23.364;2023-10-19T05:09:02;95058.00;;;5.79;100.00
6134;BME280;3098;42.678;23.364;2023-10-19T05:11:31;95051.09;;;5.94;100.00
6134;BME280;3098;42.678;23.364;2023-10-19T05:13:58;95057.41;;;6.31;100.00
6134;BME280;3098;42.678;23.364;2023-10-19T05:16:26;95060.78;;;6.89;100.00
6134;BME280;3098;42.678;23.364;2023-10-19T05:18:53;95070.34;;;7.51;100.00
6134;BME280;3098;42.678;23.364;2023-10-19T05:21:21;95068.03;;;8.38;100.00
6134;BME280;3098;42.678;23.364;2023-10-19T05:23:48;94997.31;;;8.76;100.00
6134;BME280;3098;42.678;23.364;2023-10-19T05:26:17;95019.66;;;9.60;100.00
6134;BME280;3098;42.678;23.364;2023-10-19T05:28:45;94920.84;;;9.73;100.00
6134;BME280;3098;42.678;23.364;2023-10-19T05:31:13;94923.78;;;10.38;100.00
6134;BME280;3098;42.678;23.364;2023-10-19T05:33:41;94997.34;;;12.20;100.00
6134;BME280;3098;42.678;23.364;2023-10-19T05:36:09;94896.19;;;12.83;100.00
6134;BME280;3098;42.678;23.364;2023-10-19T05:38:36;94966.09;;;13.39;100.00
6134;BME280;3098;42.678;23.364;2023-10-19T05:41:03;94950.38;;;14.20;100.00
6134;BME280;3098;42.678;23.364;2023-10-19T05:43:36;94847.66;;;13.69;100.00
6134;BME280;3098;42.678;23.364;2023-10-19T05:46:03;94959.84;;;14.62;100.00
6134;BME280;3098;42.678;23.364;2023-10-19T05:48:32;94917.47;;;14.49;98.92
6134;BME280;3098;42.678;23.364;2023-10-19T05:51:01;94891.25;;;14.75;95.58
6134;BME280;3098;42.678;23.364;2023-10-19T05:53:29;94946.34;;;13.81;96.74
6134;BME280;3098;42.678;23.364;2023-10-19T05:55:56;94961.16;;;14.56;98.14
6134;BME280;3098;42.678;23.364;2023-10-19T05:58:24;94891.63;;;13.42;95.10
6134;BME280;3098;42.678;23.364;2023-10-19T06:00:53;94963.34;;;12.89;98.07
6134;BME280;3098;42.678;23.364;2023-10-19T06:03:25;94962.19;;;11.71;100.00
6134;BME280;3098;42.678;23.364;2023-10-19T06:05:52;94956.25;;;12.00;100.00
6134;BME280;3098;42.678;23.364;2023-10-19T06:08:21;94963.66;;;11.12;100.00
6134;BME280;3098;42.678;23.364;2023-10-19T06:10:51;94874.97;;;11.30;100.00
6134;BME280;3098;42.678;23.364;2023-10-19T06:13:20;94969.53;;;12.08;100.00
6134;BME280;3098;42.678;23.364;2023-10-19T06:15:50;94759.28;;;10.78;100.00
6134;BME280;3098;42.678;23.364;2023-10-19T06:18:21;94895.91;;;11.40;100.00
6134;BME280;3098;42.678;23.364;2023-10-19T06:20:48;94905.75;;;11.57;100.00
6134;BME280;3098;42.678;23.364;2023-10-19T06:23:17;94965.31;;;11.82;100.00
6134;BME280;3098;42.678;23.364;2023-10-19T06:25:47;94899.81;;;11.51;100.00
6134;BME280;3098;42.678;23.364;2023-10-19T06:28:17;94896.59;;;10.72;100.00
6134;BME280;3098;42.678;23.364;2023-10-19T06:30:45;94967.13;;;11.47;100.00
6134;BME280;3098;42.678;23.364;2023-10-19T06:33:14;94958.06;;;11.31;100.00
6134;BME280;3098;42.678;23.364;2023-10-19T06:35:43;94854.19;;;10.33;100.00
6134;BME280;3098;42.678;23.364;2023-10-19T06:38:10;94959.41;;;11.03;100.00
6134;BME280;3098;42.678;23.364;2023-10-19T06:40:38;94962.78;;;10.16;100.00
6134;BME280;3098;42.678;23.364;2023-10-19T06:43:06;94968.00;;;10.60;100.00
6134;BME280;3098;42.678;23.364;2023-10-19T06:45:37;94975.50;;;11.06;100.00
6134;BME280;3098;42.678;23.364;2023-10-19T06:48:05;94910.44;;;10.21;100.00
6134;BME280;3098;42.678;23.364;2023-10-19T06:50:32;94991.47;;;10.45;100.00
6134;BME280;3098;42.678;23.364;2023-10-19T06:53:03;94919.50;;;9.76;100.00
6134;BME280;3098;42.678;23.364;2023-10-19T06:55:31;94942.25;;;10.08;100.00
6134;BME280;3098;42.678;23.364;2023-10-19T06:57:59;94783.41;;;10.03;100.00
6134;BME280;3098;42.678;23.364;2023-10-19T07:00:26;94963.09;;;11.67;100.00
6134;BME280;3098;42.678;23.364;2023-10-19T07:02:56;94839.19;;;11.36;100.00
6134;BME280;3098;42.678;23.364;2023-10-19T07:05:26;94869.09;;;12.14;100.00
6134;BME280;3098;42.678;23.364;2023-10-19T07:07:58;94941.34;;;12.16;100.00
6134;BME280;3098;42.678;23.364;2023-10-19T07:10:30;94854.91;;;12.01;100.00
6134;BME280;3098;42.678;23.364;2023-10-19T07:12:58;94805.63;;;11.49;100.00
6134;BME280;3098;42.678;23.364;2023-10-19T07:15:25;94893.66;;;12.11;100.00
6134;BME280;3098;42.678;23.364;2023-10-19T07:17:54;94898.63;;;12.97;100.00
6134;BME280;3098;42.678;23.364;2023-10-19T07:20:22;94842.38;;;12.48;100.00
6134;BME280;3098;42.678;23.364;2023-10-19T07:22:54;94921.81;;;13.25;100.00
6134;BME280;3098;42.678;23.364;2023-10-19T07:25:23;94961.28;;;13.53;100.00
6134;BME280;3098;42.678;23.364;2023-10-19T07:27:53;94955.28;;;13.35;100.00
6134;BME280;3098;42.678;23.364;2023-10-19T07:30:25;94821.41;;;12.09;100.00
6134;BME280;3098;42.678;23.364;2023-10-19T07:32:53;94805.84;;;12.57;100.00
6134;BME280;3098;42.678;23.364;2023-10-19T07:35:24;94941.50;;;13.95;100.00
6134;BME280;3098;42.678;23.364;2023-10-19T07:37:53;94836.13;;;12.44;100.00
6134;BME280;3098;42.678;23.364;2023-10-19T07:40:22;94861.34;;;13.47;100.00
6134;BME280;3098;42.678;23.364;2023-10-19T07:42:49;94916.94;;;13.69;100.00
6134;BME280;3098;42.678;23.364;2023-10-19T07:45:19;94934.38;;;13.87;100.00
6134;BME280;3098;42.678;23.364;2023-10-19T07:47:47;94958.09;;;13.80;100.00
6134;BME280;3098;42.678;23.364;2023-10-19T07:50:15;94795.84;;;13.91;100.00
6134;BME280;3098;42.678;23.364;2023-10-19T07:52:44;94904.13;;;14.49;100.00
6134;BME280;3098;42.678;23.364;2023-10-19T07:55:13;94918.78;;;15.39;98.66
6134;BME280;3098;42.678;23.364;2023-10-19T07:57:41;94896.69;;;16.38;92.13
6134;BME280;3098;42.678;23.364;2023-10-19T08:00:11;94910.53;;;17.18;88.00
6134;BME280;3098;42.678;23.364;2023-10-19T08:02:41;94842.72;;;17.52;82.28
6134;BME280;3098;42.678;23.364;2023-10-19T08:05:11;94958.84;;;17.88;79.74
6134;BME280;3098;42.678;23.364;2023-10-19T08:07:40;94809.81;;;17.94;75.74
6134;BME280;3098;42.678;23.364;2023-10-19T08:10:09;94925.22;;;19.23;73.19
6134;BME280;3098;42.678;23.364;2023-10-19T08:12:39;94807.19;;;19.40;67.33
6134;BME280;3098;42.678;23.364;2023-10-19T08:15:09;94944.06;;;20.05;65.17
6134;BME280;3098;42.678;23.364;2023-10-19T08:17:44;94962.22;;;19.29;67.58
6134;BME280;3098;42.678;23.364;2023-10-19T08:20:14;94955.84;;;19.93;66.35
6134;BME280;3098;42.678;23.364;2023-10-19T08:22:49;94895.00;;;20.99;61.70
6134;BME280;3098;42.678;23.364;2023-10-19T08:25:17;94773.56;;;19.94;61.59
6134;BME280;3098;42.678;23.364;2023-10-19T08:27:47;94952.38;;;22.05;59.65
6134;BME280;3098;42.678;23.364;2023-10-19T08:30:19;94649.31;;;21.08;55.52
6134;BME280;3098;42.678;23.364;2023-10-19T08:32:49;94689.59;;;21.73;51.37
6134;BME280;3098;42.678;23.364;2023-10-19T08:35:19;94964.22;;;22.66;52.79
6134;BME280;3098;42.678;23.364;2023-10-19T08:37:50;94878.47;;;23.55;50.65
6134;BME280;3098;42.678;23.364;2023-10-19T08:40:19;94799.13;;;21.85;52.54
6134;BME280;3098;42.678;23.364;2023-10-19T08:42:47;94948.31;;;22.54;54.14
6134;BME280;3098;42.678;23.364;2023-10-19T08:45:16;94943.41;;;23.33;51.74
6134;BME280;3098;42.678;23.364;2023-10-19T08:47:52;94787.66;;;23.15;50.28
6134;BME280;3098;42.678;23.364;2023-10-19T08:50:22;94947.81;;;25.15;47.57
6134;BME280;3098;42.678;23.364;2023-10-19T08:52:53;94894.13;;;21.32;52.13
6134;BME280;3098;42.678;23.364;2023-10-19T08:55:21;94946.03;;;20.78;56.67
6134;BME280;3098;42.678;23.364;2023-10-19T08:57:50;94941.06;;;21.78;55.29
6134;BME280;3098;42.678;23.364;2023-10-19T09:00:20;94948.38;;;20.43;58.03
6134;BME280;3098;42.678;23.364;2023-10-19T09:02:54;94956.34;;;21.57;55.71
6134;BME280;3098;42.678;23.364;2023-10-19T09:05:22;94956.03;;;22.45;52.80
6134;BME280;3098;42.678;23.364;2023-10-19T09:07:52;94875.41;;;22.71;53.00
6134;BME280;3098;42.678;23.364;2023-10-19T09:10:22;94758.38;;;22.53;49.84
6134;BME280;3098;42.678;23.364;2023-10-19T09:13:00;94927.47;;;23.95;48.48
6134;BME280;3098;42.678;23.364;2023-10-19T09:15:28;94591.16;;;21.14;48.45
6134;BME280;3098;42.678;23.364;2023-10-19T09:18:12;94869.56;;;24.51;46.33
6134;BME280;3098;42.678;23.364;2023-10-19T09:20:40;94875.19;;;24.13;46.86
6134;BME280;3098;42.678;23.364;2023-10-19T09:23:19;94914.53;;;24.42;46.37
6134;BME280;3098;42.678;23.364;2023-10-19T09:25:48;94896.66;;;22.90;48.80
6134;BME280;3098;42.678;23.364;2023-10-19T09:28:19;94920.16;;;21.65;51.02
6134;BME280;3098;42.678;23.364;2023-10-19T09:30:49;94843.22;;;22.10;51.11
6134;BME280;3098;42.678;23.364;2023-10-19T09:33:18;94903.50;;;22.39;51.54
6134;BME280;3098;42.678;23.364;2023-10-19T09:35:48;94710.94;;;20.00;53.73
6134;BME280;3098;42.678;23.364;2023-10-19T09:38:16;94886.00;;;21.94;54.53
6134;BME280;3098;42.678;23.364;2023-10-19T09:40:47;94876.94;;;22.65;52.58
6134;BME280;3098;42.678;23.364;2023-10-19T09:43:16;94892.03;;;23.16;51.64
6134;BME280;3098;42.678;23.364;2023-10-19T09:45:51;94873.47;;;23.14;51.11
6134;BME280;3098;42.678;23.364;2023-10-19T09:48:23;94816.31;;;22.66;51.08
6134;BME280;3098;42.678;23.364;2023-10-19T09:50:54;94877.19;;;21.35;54.14
6134;BME280;3098;42.678;23.364;2023-10-19T09:53:25;94545.69;;;17.42;59.39
6134;BME280;3098;42.678;23.364;2023-10-19T09:55:57;94852.19;;;19.77;59.87
6134;BME280;3098;42.678;23.364;2023-10-19T09:58:29;94676.03;;;17.92;63.24
6134;BME280;3098;42.678;23.364;2023-10-19T10:00:58;94863.50;;;20.23;61.97
6134;BME280;3098;42.678;23.364;2023-10-19T10:03:50;94520.69;;;18.13;61.31
6134;BME280;3098;42.678;23.364;2023-10-19T10:06:27;94819.25;;;21.11;59.88
6134;BME280;3098;42.678;23.364;2023-10-19T10:08:59;94670.75;;;19.04;60.23
6134;BME280;3098;42.678;23.364;2023-10-19T10:11:29;94865.56;;;19.14;64.45
6134;BME280;3098;42.678;23.364;2023-10-19T10:13:58;94651.78;;;18.11;65.12
6134;BME280;3098;42.678;23.364;2023-10-19T10:16:27;94667.75;;;19.46;62.41
6134;BME280;3098;42.678;23.364;2023-10-19T10:18:58;94745.84;;;21.57;57.25
6134;BME280;3098;42.678;23.364;2023-10-19T10:21:27;94856.38;;;22.25;56.95
6134;BME280;3098;42.678;23.364;2023-10-19T10:23:56;94798.75;;;21.79;56.26
6134;BME280;3098;42.678;23.364;2023-10-19T10:26:26;94656.34;;;21.44;57.01
6134;BME280;3098;42.678;23.364;2023-10-19T10:29:09;94780.53;;;23.77;53.07
6134;BME280;3098;42.678;23.364;2023-10-19T10:31:41;94775.75;;;22.70;52.07
6134;BME280;3098;42.678;23.364;2023-10-19T10:34:12;94727.03;;;22.91;51.35
6134;BME280;3098;42.678;23.364;2023-10-19T10:37:00;94824.50;;;24.06;50.09
6134;BME280;3098;42.678;23.364;2023-10-19T10:39:28;94791.91;;;22.10;53.58
6134;BME280;3098;42.678;23.364;2023-10-19T10:41:58;94667.22;;;20.72;55.87
6134;BME280;3098;42.678;23.364;2023-10-19T10:44:39;94788.78;;;20.16;58.86
6134;BME280;3098;42.678;23.364;2023-10-19T10:47:09;94787.84;;;20.38;59.97
6134;BME280;3098;42.678;23.364;2023-10-19T10:49:50;94760.72;;;20.64;59.89
6134;BME280;3098;42.678;23.364;2023-10-19T10:52:26;94736.63;;;20.89;58.48
6134;BME280;3098;42.678;23.364;2023-10-19T10:54:55;94719.56;;;19.76;61.45
6134;BME280;3098;42.678;23.364;2023-10-19T10:57:30;94676.31;;;21.18;57.42
6134;BME280;3098;42.678;23.364;2023-10-19T11:00:04;94682.03;;;20.41;58.54
6134;BME280;3098;42.678;23.364;2023-10-19T11:02:35;94766.16;;;21.33;58.04
6134;BME280;3098;42.678;23.364;2023-10-19T11:05:12;94534.66;;;20.42;57.72
6134;BME280;3098;42.678;23.364;2023-10-19T11:07:41;94716.25;;;19.93;60.96
6134;BME280;3098;42.678;23.364;2023-10-19T11:10:09;94587.13;;;19.13;61.87
6134;BME280;3098;42.678;23.364;2023-10-19T11:12:40;94556.22;;;18.33;64.12
6134;BME280;3098;42.678;23.364;2023-10-19T11:15:21;94626.38;;;19.21;64.91
6134;BME280;3098;42.678;23.364;2023-10-19T11:17:48;94616.66;;;19.93;62.47
6134;BME280;3098;42.678;23.364;2023-10-19T11:20:23;94723.72;;;21.19;60.11
6134;BME280;3098;42.678;23.364;2023-10-19T11:22:54;94734.16;;;20.67;62.35
6134;BME280;3098;42.678;23.364;2023-10-19T11:25:23;94688.78;;;20.18;61.73
6134;BME280;3098;42.678;23.364;2023-10-19T11:27:54;94701.34;;;21.08;61.05
6134;BME280;3098;42.678;23.364;2023-10-19T11:30:24;94654.91;;;22.14;57.61
6134;BME280;3098;42.678;23.364;2023-10-19T11:32:53;94713.13;;;20.90;58.79
6134;BME280;3098;42.678;23.364;2023-10-19T11:35:27;94717.28;;;20.22;63.58
6134;BME280;3098;42.678;23.364;2023-10-19T11:37:56;94700.75;;;21.68;60.04
6134;BME280;3098;42.678;23.364;2023-10-19T11:40:25;94549.88;;;21.06;58.14
6134;BME280;3098;42.678;23.364;2023-10-19T11:42:53;94682.69;;;22.21;57.33
6134;BME280;3098;42.678;23.364;2023-10-19T11:45:23;94560.00;;;21.80;56.41
6134;BME280;3098;42.678;23.364;2023-10-19T11:47:51;94505.25;;;21.58;54.87
6134;BME280;3098;42.678;23.364;2023-10-19T11:50:20;94641.78;;;22.19;56.37
6134;BME280;3098;42.678;23.364;2023-10-19T11:52:49;94661.09;;;21.90;57.08
6134;BME280;3098;42.678;23.364;2023-10-19T11:55:18;94651.75;;;21.66;56.97
6134;BME280;3098;42.678;23.364;2023-10-19T11:57:47;94670.84;;;21.04;59.27
6134;BME280;3098;42.678;23.364;2023-10-19T12:00:15;94510.06;;;20.50;59.28
6134;BME280;3098;42.678;23.364;2023-10-19T12:02:47;94518.28;;;21.03;57.85
6134;BME280;3098;42.678;23.364;2023-10-19T12:05:17;94587.22;;;20.90;58.77
6134;BME280;3098;42.678;23.364;2023-10-19T12:07:44;94582.25;;;20.24;61.52
6134;BME280;3098;42.678;23.364;2023-10-19T12:10:13;94607.75;;;21.23;60.11
6134;BME280;3098;42.678;23.364;2023-10-19T12:12:40;94552.31;;;21.68;57.94
6134;BME280;3098;42.678;23.364;2023-10-19T12:15:09;94562.31;;;21.46;57.21
6134;BME280;3098;42.678;23.364;2023-10-19T12:17:41;94557.78;;;20.50;59.28
6134;BME280;3098;42.678;23.364;2023-10-19T12:20:10;94634.69;;;20.37;61.99
6134;BME280;3098;42.678;23.364;2023-10-19T12:22:40;94654.88;;;20.68;61.88
6134;BME280;3098;42.678;23.364;2023-10-19T12:25:08;94656.19;;;20.30;63.00
6134;BME280;3098;42.678;23.364;2023-10-19T12:27:37;94651.41;;;20.09;63.67
6134;BME280;3098;42.678;23.364;2023-10-19T12:30:06;94662.84;;;20.43;62.78
6134;BME280;3098;42.678;23.364;2023-10-19T12:32:42;94572.19;;;19.59;63.22
6134;BME280;3098;42.678;23.364;2023-10-19T12:35:10;94646.16;;;19.06;65.88
6134;BME280;3098;42.678;23.364;2023-10-19T12:37:38;94588.38;;;18.89;65.71
6134;BME280;3098;42.678;23.364;2023-10-19T12:40:12;94649.94;;;19.34;66.10
6134;BME280;3098;42.678;23.364;2023-10-19T12:42:53;94647.78;;;19.47;65.26
6134;BME280;3098;42.678;23.364;2023-10-19T12:45:21;94635.31;;;19.32;66.18
6134;BME280;3098;42.678;23.364;2023-10-19T12:47:51;94564.56;;;18.87;66.57
6134;BME280;3098;42.678;23.364;2023-10-19T12:50:19;94631.25;;;19.45;66.92
6134;BME280;3098;42.678;23.364;2023-10-19T12:52:49;94635.09;;;19.44;67.38
6134;BME280;3098;42.678;23.364;2023-10-19T12:55:22;94627.91;;;18.88;67.77
6134;BME280;3098;42.678;23.364;2023-10-19T12:57:54;94617.50;;;18.83;68.50
6134;BME280;3098;42.678;23.364;2023-10-19T13:00:23;94623.19;;;19.12;67.70
6134;BME280;3098;42.678;23.364;2023-10-19T13:02:51;94533.88;;;18.25;68.46
6134;BME280;3098;42.678;23.364;2023-10-19T13:05:26;94564.97;;;18.26;69.20
6134;BME280;3098;42.678;23.364;2023-10-19T13:07:54;94624.13;;;18.93;69.53
6134;BME280;3098;42.678;23.364;2023-10-19T13:10:28;94624.00;;;19.16;68.21
6134;BME280;3098;42.678;23.364;2023-10-19T13:13:04;94557.69;;;18.90;67.78
6134;BME280;3098;42.678;23.364;2023-10-19T13:15:35;94619.41;;;19.53;67.20
6134;BME280;3098;42.678;23.364;2023-10-19T13:18:07;94409.28;;;17.93;67.51
6134;BME280;3098;42.678;23.364;2023-10-19T13:20:39;94608.56;;;19.09;67.55
6134;BME280;3098;42.678;23.364;2023-10-19T13:23:11;94568.00;;;19.25;67.13
6134;BME280;3098;42.678;23.364;2023-10-19T13:25:49;94595.94;;;19.50;66.32
6134;BME280;3098;42.678;23.364;2023-10-19T13:28:29;94424.78;;;18.44;67.33